sensor_id;sensor_type;location;lat;lon;timestamp;P1;durP1;ratioP1;P2;durP2;ratioP2
4525;SDS011;2275;52.208;8.804;2022-10-26T00:02:17;39.15;;;19.20;;
4525;SDS011;2275;52.208;8.804;2022-10-26T00:04:45;30.90;;;16.80;;
4525;SDS011;2275;52.208;8.804;2022-10-26T00:07:12;31.33;;;17.05;;
4525;SDS011;2275;52.208;8.804;2022-10-26T00:09:39;43.08;;;17.30;;
4525;SDS011;2275;52.208;8.804;2022-10-26T00:12:07;42.30;;;18.25;;
4525;SDS011;2275;52.208;8.804;2022-10-26T00:14:34;38.97;;;20.83;;
4525;SDS011;2275;52.208;8.804;2022-10-26T00:17:02;36.53;;;16.90;;
4525;SDS011;2275;52.208;8.804;2022-10-26T00:19:31;34.53;;;18.37;;
4525;SDS011;2275;52.208;8.804;2022-10-26T00:21:56;40.63;;;19.40;;
4525;SDS011;2275;52.208;8.804;2022-10-26T00:24:23;35.47;;;17.83;;
4525;SDS011;2275;52.208;8.804;2022-10-26T00:26:51;32.55;;;15.32;;
4525;SDS011;2275;52.208;8.804;2022-10-26T00:29:18;38.47;;;20.40;;
4525;SDS011;2275;52.208;8.804;2022-10-26T00:31:50;36.47;;;17.85;;
4525;SDS011;2275;52.208;8.804;2022-10-26T00:34:31;37.95;;;17.25;;
4525;SDS011;2275;52.208;8.804;2022-10-26T00:37:11;39.25;;;18.65;;
4525;SDS011;2275;52.208;8.804;2022-10-26T00:39:38;38.67;;;20.92;;
4525;SDS011;2275;52.208;8.804;2022-10-26T00:42:05;36.50;;;18.05;;
4525;SDS011;2275;52.208;8.804;2022-10-26T00:47:32;36.45;;;17.45;;
4525;SDS011;2275;52.208;8.804;2022-10-26T00:50:17;34.10;;;16.00;;
4525;SDS011;2275;52.208;8.804;2022-10-26T00:52:44;36.25;;;16.75;;
4525;SDS011;2275;52.208;8.804;2022-10-26T00:55:11;28.80;;;16.45;;
4525;SDS011;2275;52.208;8.804;2022-10-26T00:57:38;37.50;;;20.20;;
4525;SDS011;2275;52.208;8.804;2022-10-26T01:00:06;38.75;;;18.05;;
4525;SDS011;2275;52.208;8.804;2022-10-26T01:02:34;36.92;;;16.02;;
4525;SDS011;2275;52.208;8.804;2022-10-26T01:05:02;38.05;;;17.17;;
4525;SDS011;2275;52.208;8.804;2022-10-26T01:07:29;35.10;;;17.75;;
4525;SDS011;2275;52.208;8.804;2022-10-26T01:09:56;30.67;;;15.38;;
4525;SDS011;2275;52.208;8.804;2022-10-26T01:12:24;37.05;;;16.85;;
4525;SDS011;2275;52.208;8.804;2022-10-26T01:14:52;33.05;;;18.12;;
4525;SDS011;2275;52.208;8.804;2022-10-26T01:17:24;29.80;;;15.27;;
4525;SDS011;2275;52.208;8.804;2022-10-26T01:22:35;30.25;;;17.10;;
4525;SDS011;2275;52.208;8.804;2022-10-26T01:25:11;35.95;;;15.40;;
4525;SDS011;2275;52.208;8.804;2022-10-26T01:27:47;37.13;;;15.43;;
4525;SDS011;2275;52.208;8.804;2022-10-26T01:30:17;35.83;;;16.77;;
4525;SDS011;2275;52.208;8.804;2022-10-26T01:35:52;30.40;;;15.23;;
4525;SDS011;2275;52.208;8.804;2022-10-26T01:38:28;35.60;;;15.43;;
4525;SDS011;2275;52.208;8.804;2022-10-26T01:40:59;34.38;;;16.80;;
4525;SDS011;2275;52.208;8.804;2022-10-26T01:43:25;31.80;;;16.67;;
4525;SDS011;2275;52.208;8.804;2022-10-26T01:45:52;39.72;;;15.77;;
4525;SDS011;2275;52.208;8.804;2022-10-26T01:48:20;33.15;;;15.32;;
4525;SDS011;2275;52.208;8.804;2022-10-26T01:50:48;37.05;;;16.62;;
4525;SDS011;2275;52.208;8.804;2022-10-26T01:53:14;32.08;;;15.68;;
4525;SDS011;2275;52.208;8.804;2022-10-26T01:55:46;30.67;;;14.65;;
4525;SDS011;2275;52.208;8.804;2022-10-26T02:01:00;34.08;;;14.77;;
4525;SDS011;2275;52.208;8.804;2022-10-26T02:03:38;34.85;;;13.25;;
4525;SDS011;2275;52.208;8.804;2022-10-26T02:06:05;36.75;;;15.32;;
4525;SDS011;2275;52.208;8.804;2022-10-26T02:11:24;29.95;;;15.32;;
4525;SDS011;2275;52.208;8.804;2022-10-26T02:13:59;30.00;;;14.15;;
4525;SDS011;2275;52.208;8.804;2022-10-26T02:17:01;38.20;;;17.27;;
4525;SDS011;2275;52.208;8.804;2022-10-26T02:19:30;29.02;;;14.63;;
4525;SDS011;2275;52.208;8.804;2022-10-26T02:21:58;29.98;;;15.13;;
4525;SDS011;2275;52.208;8.804;2022-10-26T02:24:22;38.53;;;18.30;;
4525;SDS011;2275;52.208;8.804;2022-10-26T02:26:50;31.20;;;14.15;;
4525;SDS011;2275;52.208;8.804;2022-10-26T02:29:17;32.47;;;15.27;;
4525;SDS011;2275;52.208;8.804;2022-10-26T02:31:45;33.73;;;17.37;;
4525;SDS011;2275;52.208;8.804;2022-10-26T02:34:12;28.60;;;15.13;;
4525;SDS011;2275;52.208;8.804;2022-10-26T02:36:40;28.83;;;14.07;;
4525;SDS011;2275;52.208;8.804;2022-10-26T02:39:06;35.83;;;18.00;;
4525;SDS011;2275;52.208;8.804;2022-10-26T02:41:34;35.20;;;15.27;;
4525;SDS011;2275;52.208;8.804;2022-10-26T02:44:04;29.67;;;14.73;;
4525;SDS011;2275;52.208;8.804;2022-10-26T02:46:31;35.15;;;17.25;;
4525;SDS011;2275;52.208;8.804;2022-10-26T02:48:58;30.10;;;15.02;;
4525;SDS011;2275;52.208;8.804;2022-10-26T02:51:29;33.90;;;16.42;;
4525;SDS011;2275;52.208;8.804;2022-10-26T02:54:03;34.85;;;17.30;;
4525;SDS011;2275;52.208;8.804;2022-10-26T02:56:31;30.95;;;14.20;;
4525;SDS011;2275;52.208;8.804;2022-10-26T02:58:57;35.38;;;15.18;;
4525;SDS011;2275;52.208;8.804;2022-10-26T03:01:23;37.13;;;17.12;;
4525;SDS011;2275;52.208;8.804;2022-10-26T03:03:50;28.77;;;14.48;;
4525;SDS011;2275;52.208;8.804;2022-10-26T03:06:20;25.17;;;13.32;;
4525;SDS011;2275;52.208;8.804;2022-10-26T03:08:47;34.10;;;16.58;;
4525;SDS011;2275;52.208;8.804;2022-10-26T03:11:13;26.98;;;14.43;;
4525;SDS011;2275;52.208;8.804;2022-10-26T03:13:41;28.77;;;13.70;;
4525;SDS011;2275;52.208;8.804;2022-10-26T03:16:09;32.03;;;15.65;;
4525;SDS011;2275;52.208;8.804;2022-10-26T03:18:36;33.45;;;16.73;;
4525;SDS011;2275;52.208;8.804;2022-10-26T03:21:02;33.47;;;13.95;;
4525;SDS011;2275;52.208;8.804;2022-10-26T03:23:30;35.00;;;13.62;;
4525;SDS011;2275;52.208;8.804;2022-10-26T03:25:58;34.38;;;15.00;;
4525;SDS011;2275;52.208;8.804;2022-10-26T03:28:25;30.55;;;13.43;;
4525;SDS011;2275;52.208;8.804;2022-10-26T03:30:52;32.33;;;14.05;;
4525;SDS011;2275;52.208;8.804;2022-10-26T03:33:19;32.55;;;14.05;;
4525;SDS011;2275;52.208;8.804;2022-10-26T03:35:52;37.20;;;15.30;;
4525;SDS011;2275;52.208;8.804;2022-10-26T03:38:14;31.20;;;13.70;;
4525;SDS011;2275;52.208;8.804;2022-10-26T03:40:41;29.08;;;13.55;;
4525;SDS011;2275;52.208;8.804;2022-10-26T03:43:08;28.98;;;12.50;;
4525;SDS011;2275;52.208;8.804;2022-10-26T03:45:37;32.03;;;15.30;;
4525;SDS011;2275;52.208;8.804;2022-10-26T03:48:05;35.25;;;14.75;;
4525;SDS011;2275;52.208;8.804;2022-10-26T03:50:33;26.83;;;12.82;;
4525;SDS011;2275;52.208;8.804;2022-10-26T03:53:00;36.00;;;15.35;;
4525;SDS011;2275;52.208;8.804;2022-10-26T03:55:31;31.42;;;14.15;;
4525;SDS011;2275;52.208;8.804;2022-10-26T03:57:58;33.42;;;13.77;;
4525;SDS011;2275;52.208;8.804;2022-10-26T04:00:30;37.25;;;17.05;;
4525;SDS011;2275;52.208;8.804;2022-10-26T04:03:03;34.33;;;16.60;;
4525;SDS011;2275;52.208;8.804;2022-10-26T04:05:30;36.45;;;14.18;;
4525;SDS011;2275;52.208;8.804;2022-10-26T04:08:03;31.48;;;13.60;;
4525;SDS011;2275;52.208;8.804;2022-10-26T04:10:33;31.92;;;14.52;;
4525;SDS011;2275;52.208;8.804;2022-10-26T04:13:00;31.62;;;14.77;;
4525;SDS011;2275;52.208;8.804;2022-10-26T04:15:28;27.67;;;13.13;;
4525;SDS011;2275;52.208;8.804;2022-10-26T04:17:58;33.10;;;15.73;;
4525;SDS011;2275;52.208;8.804;2022-10-26T04:20:25;35.65;;;14.77;;
4525;SDS011;2275;52.208;8.804;2022-10-26T04:23:00;33.88;;;13.90;;
4525;SDS011;2275;52.208;8.804;2022-10-26T04:25:27;29.58;;;13.52;;
4525;SDS011;2275;52.208;8.804;2022-10-26T04:27:55;39.25;;;17.35;;
4525;SDS011;2275;52.208;8.804;2022-10-26T04:30:26;33.88;;;15.13;;
4525;SDS011;2275;52.208;8.804;2022-10-26T04:32:55;36.22;;;15.60;;
4525;SDS011;2275;52.208;8.804;2022-10-26T04:35:24;39.87;;;18.60;;
4525;SDS011;2275;52.208;8.804;2022-10-26T04:37:55;33.78;;;13.85;;
4525;SDS011;2275;52.208;8.804;2022-10-26T04:40:18;40.45;;;16.02;;
4525;SDS011;2275;52.208;8.804;2022-10-26T04:42:45;46.10;;;15.45;;
4525;SDS011;2275;52.208;8.804;2022-10-26T04:45:13;31.52;;;14.15;;
4525;SDS011;2275;52.208;8.804;2022-10-26T04:47:40;32.20;;;14.45;;
4525;SDS011;2275;52.208;8.804;2022-10-26T04:50:07;30.75;;;15.10;;
4525;SDS011;2275;52.208;8.804;2022-10-26T04:52:36;37.58;;;16.98;;
4525;SDS011;2275;52.208;8.804;2022-10-26T04:55:03;40.00;;;17.90;;
4525;SDS011;2275;52.208;8.804;2022-10-26T04:57:31;35.33;;;15.43;;
4525;SDS011;2275;52.208;8.804;2022-10-26T04:59:59;36.53;;;15.57;;
4525;SDS011;2275;52.208;8.804;2022-10-26T05:02:26;33.67;;;18.23;;
4525;SDS011;2275;52.208;8.804;2022-10-26T05:04:52;39.17;;;15.55;;
4525;SDS011;2275;52.208;8.804;2022-10-26T05:07:19;34.60;;;16.05;;
4525;SDS011;2275;52.208;8.804;2022-10-26T05:09:47;36.90;;;19.23;;
4525;SDS011;2275;52.208;8.804;2022-10-26T05:12:14;33.47;;;16.00;;
4525;SDS011;2275;52.208;8.804;2022-10-26T05:14:42;36.47;;;15.90;;
4525;SDS011;2275;52.208;8.804;2022-10-26T05:17:09;36.80;;;19.30;;
4525;SDS011;2275;52.208;8.804;2022-10-26T05:19:36;37.42;;;15.57;;
4525;SDS011;2275;52.208;8.804;2022-10-26T05:22:03;33.10;;;15.67;;
4525;SDS011;2275;52.208;8.804;2022-10-26T05:24:31;36.40;;;15.82;;
4525;SDS011;2275;52.208;8.804;2022-10-26T05:26:58;31.98;;;14.75;;
4525;SDS011;2275;52.208;8.804;2022-10-26T05:29:25;34.95;;;16.20;;
4525;SDS011;2275;52.208;8.804;2022-10-26T05:31:52;36.40;;;16.40;;
4525;SDS011;2275;52.208;8.804;2022-10-26T05:34:20;36.63;;;15.65;;
4525;SDS011;2275;52.208;8.804;2022-10-26T05:36:47;43.87;;;18.48;;
4525;SDS011;2275;52.208;8.804;2022-10-26T05:39:15;38.13;;;16.75;;
4525;SDS011;2275;52.208;8.804;2022-10-26T05:41:42;37.15;;;16.35;;
4525;SDS011;2275;52.208;8.804;2022-10-26T05:44:09;36.58;;;16.30;;
4525;SDS011;2275;52.208;8.804;2022-10-26T05:46:35;41.75;;;18.60;;
4525;SDS011;2275;52.208;8.804;2022-10-26T05:49:03;38.08;;;15.90;;
4525;SDS011;2275;52.208;8.804;2022-10-26T05:51:31;36.25;;;14.90;;
4525;SDS011;2275;52.208;8.804;2022-10-26T05:53:57;41.83;;;17.50;;
4525;SDS011;2275;52.208;8.804;2022-10-26T05:58:59;32.65;;;14.38;;
4525;SDS011;2275;52.208;8.804;2022-10-26T06:06:52;37.95;;;13.85;;
4525;SDS011;2275;52.208;8.804;2022-10-26T06:09:20;36.92;;;15.30;;
4525;SDS011;2275;52.208;8.804;2022-10-26T06:11:48;37.03;;;14.65;;
4525;SDS011;2275;52.208;8.804;2022-10-26T06:14:16;35.58;;;14.07;;
4525;SDS011;2275;52.208;8.804;2022-10-26T06:16:52;42.50;;;18.42;;
4525;SDS011;2275;52.208;8.804;2022-10-26T06:22:24;40.47;;;16.50;;
4525;SDS011;2275;52.208;8.804;2022-10-26T06:25:01;30.15;;;14.30;;
4525;SDS011;2275;52.208;8.804;2022-10-26T06:27:39;34.10;;;13.70;;
4525;SDS011;2275;52.208;8.804;2022-10-26T06:30:08;38.03;;;16.80;;
4525;SDS011;2275;52.208;8.804;2022-10-26T06:32:38;31.98;;;15.40;;
4525;SDS011;2275;52.208;8.804;2022-10-26T06:35:17;31.73;;;15.30;;
4525;SDS011;2275;52.208;8.804;2022-10-26T06:37:45;38.83;;;18.30;;
4525;SDS011;2275;52.208;8.804;2022-10-26T06:40:14;40.33;;;16.90;;
4525;SDS011;2275;52.208;8.804;2022-10-26T06:42:41;37.47;;;16.62;;
4525;SDS011;2275;52.208;8.804;2022-10-26T06:45:11;52.03;;;17.47;;
4525;SDS011;2275;52.208;8.804;2022-10-26T06:47:43;32.55;;;16.23;;
4525;SDS011;2275;52.208;8.804;2022-10-26T06:50:18;37.45;;;15.85;;
4525;SDS011;2275;52.208;8.804;2022-10-26T06:52:54;38.90;;;17.73;;
4525;SDS011;2275;52.208;8.804;2022-10-26T06:55:25;34.28;;;17.00;;
4525;SDS011;2275;52.208;8.804;2022-10-26T06:57:52;31.10;;;16.00;;
4525;SDS011;2275;52.208;8.804;2022-10-26T07:00:20;35.42;;;17.60;;
4525;SDS011;2275;52.208;8.804;2022-10-26T07:02:47;30.20;;;15.02;;
4525;SDS011;2275;52.208;8.804;2022-10-26T07:05:15;43.87;;;15.88;;
4525;SDS011;2275;52.208;8.804;2022-10-26T07:07:43;36.87;;;18.10;;
4525;SDS011;2275;52.208;8.804;2022-10-26T07:10:09;36.95;;;14.68;;
4525;SDS011;2275;52.208;8.804;2022-10-26T07:12:36;29.73;;;13.25;;
4525;SDS011;2275;52.208;8.804;2022-10-26T07:15:04;32.50;;;14.87;;
4525;SDS011;2275;52.208;8.804;2022-10-26T07:17:48;36.55;;;15.93;;
4525;SDS011;2275;52.208;8.804;2022-10-26T07:20:34;35.25;;;14.13;;
4525;SDS011;2275;52.208;8.804;2022-10-26T07:23:07;29.55;;;15.38;;
4525;SDS011;2275;52.208;8.804;2022-10-26T07:25:42;28.73;;;13.40;;
4525;SDS011;2275;52.208;8.804;2022-10-26T07:28:09;25.90;;;12.15;;
4525;SDS011;2275;52.208;8.804;2022-10-26T07:33:58;30.45;;;12.10;;
4525;SDS011;2275;52.208;8.804;2022-10-26T07:36:30;23.38;;;12.77;;
4525;SDS011;2275;52.208;8.804;2022-10-26T07:38:58;30.20;;;11.80;;
4525;SDS011;2275;52.208;8.804;2022-10-26T07:41:31;24.00;;;11.23;;
4525;SDS011;2275;52.208;8.804;2022-10-26T07:44:00;28.83;;;13.05;;
4525;SDS011;2275;52.208;8.804;2022-10-26T07:46:27;22.80;;;11.12;;
4525;SDS011;2275;52.208;8.804;2022-10-26T07:48:54;22.83;;;12.02;;
4525;SDS011;2275;52.208;8.804;2022-10-26T07:51:21;21.65;;;12.00;;
4525;SDS011;2275;52.208;8.804;2022-10-26T07:53:49;21.83;;;11.68;;
4525;SDS011;2275;52.208;8.804;2022-10-26T07:56:16;17.67;;;10.35;;
4525;SDS011;2275;52.208;8.804;2022-10-26T07:58:43;19.55;;;9.68;;
4525;SDS011;2275;52.208;8.804;2022-10-26T08:01:12;17.80;;;9.43;;
4525;SDS011;2275;52.208;8.804;2022-10-26T08:03:38;20.05;;;10.43;;
4525;SDS011;2275;52.208;8.804;2022-10-26T08:06:06;21.67;;;11.20;;
4525;SDS011;2275;52.208;8.804;2022-10-26T08:08:33;21.98;;;9.38;;
4525;SDS011;2275;52.208;8.804;2022-10-26T08:13:44;20.42;;;8.60;;
4525;SDS011;2275;52.208;8.804;2022-10-26T08:16:14;17.95;;;8.52;;
4525;SDS011;2275;52.208;8.804;2022-10-26T08:18:41;16.40;;;9.35;;
4525;SDS011;2275;52.208;8.804;2022-10-26T08:21:09;15.95;;;8.02;;
4525;SDS011;2275;52.208;8.804;2022-10-26T08:23:35;14.25;;;9.30;;
4525;SDS011;2275;52.208;8.804;2022-10-26T08:26:03;17.40;;;8.80;;
4525;SDS011;2275;52.208;8.804;2022-10-26T08:28:32;16.75;;;8.45;;
4525;SDS011;2275;52.208;8.804;2022-10-26T08:30:59;21.75;;;8.52;;
4525;SDS011;2275;52.208;8.804;2022-10-26T08:33:26;17.30;;;9.20;;
4525;SDS011;2275;52.208;8.804;2022-10-26T08:35:56;16.52;;;7.68;;
4525;SDS011;2275;52.208;8.804;2022-10-26T08:38:22;18.20;;;8.13;;
4525;SDS011;2275;52.208;8.804;2022-10-26T08:40:48;21.10;;;9.30;;
4525;SDS011;2275;52.208;8.804;2022-10-26T08:43:26;16.70;;;9.48;;
4525;SDS011;2275;52.208;8.804;2022-10-26T08:46:12;15.88;;;8.57;;
4525;SDS011;2275;52.208;8.804;2022-10-26T08:48:43;13.80;;;8.43;;
4525;SDS011;2275;52.208;8.804;2022-10-26T08:51:13;17.65;;;7.85;;
4525;SDS011;2275;52.208;8.804;2022-10-26T08:56:22;18.52;;;10.05;;
4525;SDS011;2275;52.208;8.804;2022-10-26T08:58:54;16.77;;;7.68;;
4525;SDS011;2275;52.208;8.804;2022-10-26T09:01:30;14.32;;;7.03;;
4525;SDS011;2275;52.208;8.804;2022-10-26T09:03:57;14.65;;;7.50;;
4525;SDS011;2275;52.208;8.804;2022-10-26T09:09:18;11.45;;;7.35;;
4525;SDS011;2275;52.208;8.804;2022-10-26T09:12:04;12.70;;;7.60;;
4525;SDS011;2275;52.208;8.804;2022-10-26T09:14:37;15.50;;;7.50;;
4525;SDS011;2275;52.208;8.804;2022-10-26T09:17:06;17.62;;;8.90;;
4525;SDS011;2275;52.208;8.804;2022-10-26T09:24:52;15.38;;;7.28;;
4525;SDS011;2275;52.208;8.804;2022-10-26T09:27:22;18.70;;;7.82;;
4525;SDS011;2275;52.208;8.804;2022-10-26T09:29:47;13.30;;;6.90;;
4525;SDS011;2275;52.208;8.804;2022-10-26T09:32:16;12.82;;;7.00;;
4525;SDS011;2275;52.208;8.804;2022-10-26T09:34:46;13.32;;;7.53;;
4525;SDS011;2275;52.208;8.804;2022-10-26T09:37:14;17.17;;;8.25;;
4525;SDS011;2275;52.208;8.804;2022-10-26T09:42:42;24.10;;;10.15;;
4525;SDS011;2275;52.208;8.804;2022-10-26T09:45:21;14.50;;;8.10;;
4525;SDS011;2275;52.208;8.804;2022-10-26T09:47:52;12.65;;;5.35;;
4525;SDS011;2275;52.208;8.804;2022-10-26T09:50:22;16.80;;;6.07;;
4525;SDS011;2275;52.208;8.804;2022-10-26T09:52:49;15.57;;;6.00;;
4525;SDS011;2275;52.208;8.804;2022-10-26T09:55:18;9.10;;;5.97;;
4525;SDS011;2275;52.208;8.804;2022-10-26T09:57:45;12.02;;;5.60;;
4525;SDS011;2275;52.208;8.804;2022-10-26T10:00:15;13.60;;;6.10;;
4525;SDS011;2275;52.208;8.804;2022-10-26T10:02:43;13.77;;;7.27;;
4525;SDS011;2275;52.208;8.804;2022-10-26T10:07:48;9.03;;;6.23;;
4525;SDS011;2275;52.208;8.804;2022-10-26T10:10:17;12.00;;;5.70;;
4525;SDS011;2275;52.208;8.804;2022-10-26T10:12:43;12.40;;;6.22;;
4525;SDS011;2275;52.208;8.804;2022-10-26T10:15:16;9.63;;;5.50;;
4525;SDS011;2275;52.208;8.804;2022-10-26T10:17:47;8.00;;;5.20;;
4525;SDS011;2275;52.208;8.804;2022-10-26T10:20:16;12.00;;;4.70;;
4525;SDS011;2275;52.208;8.804;2022-10-26T10:25:22;12.93;;;7.37;;
4525;SDS011;2275;52.208;8.804;2022-10-26T10:27:51;10.67;;;7.07;;
4525;SDS011;2275;52.208;8.804;2022-10-26T10:30:20;18.80;;;8.10;;
4525;SDS011;2275;52.208;8.804;2022-10-26T10:32:47;10.60;;;4.57;;
4525;SDS011;2275;52.208;8.804;2022-10-26T10:37:47;11.23;;;7.40;;
4525;SDS011;2275;52.208;8.804;2022-10-26T10:40:18;13.13;;;5.50;;
4525;SDS011;2275;52.208;8.804;2022-10-26T10:42:45;15.68;;;6.40;;
4525;SDS011;2275;52.208;8.804;2022-10-26T10:45:24;6.23;;;4.67;;
4525;SDS011;2275;52.208;8.804;2022-10-26T10:50:25;28.00;;;12.37;;
4525;SDS011;2275;52.208;8.804;2022-10-26T10:52:53;13.02;;;6.00;;
4525;SDS011;2275;52.208;8.804;2022-10-26T10:55:22;8.00;;;3.40;;
4525;SDS011;2275;52.208;8.804;2022-10-26T10:57:53;7.10;;;3.17;;
4525;SDS011;2275;52.208;8.804;2022-10-26T11:00:19;7.28;;;3.83;;
4525;SDS011;2275;52.208;8.804;2022-10-26T11:03:55;6.40;;;3.33;;
4525;SDS011;2275;52.208;8.804;2022-10-26T11:08:38;9.60;;;4.13;;
4525;SDS011;2275;52.208;8.804;2022-10-26T11:11:11;9.80;;;4.73;;
4525;SDS011;2275;52.208;8.804;2022-10-26T11:13:40;14.60;;;6.10;;
4525;SDS011;2275;52.208;8.804;2022-10-26T11:16:17;26.25;;;14.73;;
4525;SDS011;2275;52.208;8.804;2022-10-26T11:18:52;7.63;;;4.60;;
4525;SDS011;2275;52.208;8.804;2022-10-26T11:21:28;40.17;;;18.60;;
4525;SDS011;2275;52.208;8.804;2022-10-26T11:24:03;21.87;;;5.20;;
4525;SDS011;2275;52.208;8.804;2022-10-26T11:26:32;10.05;;;4.43;;
4525;SDS011;2275;52.208;8.804;2022-10-26T11:29:01;15.53;;;4.47;;
4525;SDS011;2275;52.208;8.804;2022-10-26T11:31:30;14.40;;;6.57;;
4525;SDS011;2275;52.208;8.804;2022-10-26T11:34:11;14.03;;;4.70;;
4525;SDS011;2275;52.208;8.804;2022-10-26T11:36:39;28.58;;;6.25;;
4525;SDS011;2275;52.208;8.804;2022-10-26T11:39:10;11.83;;;5.40;;
4525;SDS011;2275;52.208;8.804;2022-10-26T11:41:47;10.80;;;4.93;;
4525;SDS011;2275;52.208;8.804;2022-10-26T11:47:09;5.93;;;2.20;;
4525;SDS011;2275;52.208;8.804;2022-10-26T11:49:46;18.40;;;2.20;;
4525;SDS011;2275;52.208;8.804;2022-10-26T11:52:13;7.70;;;2.60;;
4525;SDS011;2275;52.208;8.804;2022-10-26T11:54:58;3.22;;;2.00;;
4525;SDS011;2275;52.208;8.804;2022-10-26T11:57:31;7.23;;;2.23;;
4525;SDS011;2275;52.208;8.804;2022-10-26T12:00:00;3.80;;;2.00;;
4525;SDS011;2275;52.208;8.804;2022-10-26T12:02:39;5.23;;;2.03;;
4525;SDS011;2275;52.208;8.804;2022-10-26T12:05:15;7.95;;;2.40;;
4525;SDS011;2275;52.208;8.804;2022-10-26T12:07:55;6.70;;;2.70;;
4525;SDS011;2275;52.208;8.804;2022-10-26T12:10:25;4.13;;;2.00;;
4525;SDS011;2275;52.208;8.804;2022-10-26T12:13:29;9.40;;;2.97;;
4525;SDS011;2275;52.208;8.804;2022-10-26T12:15:55;14.93;;;8.57;;
4525;SDS011;2275;52.208;8.804;2022-10-26T12:18:25;12.73;;;3.70;;
4525;SDS011;2275;52.208;8.804;2022-10-26T12:20:59;10.10;;;4.80;;
4525;SDS011;2275;52.208;8.804;2022-10-26T12:23:32;4.40;;;2.77;;
4525;SDS011;2275;52.208;8.804;2022-10-26T12:28:40;10.77;;;2.80;;
4525;SDS011;2275;52.208;8.804;2022-10-26T12:33:56;5.30;;;2.80;;
4525;SDS011;2275;52.208;8.804;2022-10-26T12:39:15;26.10;;;11.68;;
4525;SDS011;2275;52.208;8.804;2022-10-26T12:41:33;16.60;;;10.40;;
4525;SDS011;2275;52.208;8.804;2022-10-26T12:44:01;7.83;;;5.60;;
4525;SDS011;2275;52.208;8.804;2022-10-26T12:46:42;9.03;;;3.23;;
4525;SDS011;2275;52.208;8.804;2022-10-26T12:49:56;4.27;;;2.40;;
4525;SDS011;2275;52.208;8.804;2022-10-26T12:51:40;5.03;;;2.45;;
4525;SDS011;2275;52.208;8.804;2022-10-26T12:54:27;18.07;;;3.40;;
4525;SDS011;2275;52.208;8.804;2022-10-26T12:56:49;7.27;;;3.00;;
4525;SDS011;2275;52.208;8.804;2022-10-26T12:59:29;17.93;;;2.77;;
4525;SDS011;2275;52.208;8.804;2022-10-26T13:01:58;8.35;;;3.45;;
4525;SDS011;2275;52.208;8.804;2022-10-26T13:04:50;17.93;;;4.40;;
4525;SDS011;2275;52.208;8.804;2022-10-26T13:07:24;7.83;;;2.90;;
4525;SDS011;2275;52.208;8.804;2022-10-26T13:09:55;6.60;;;2.53;;
4525;SDS011;2275;52.208;8.804;2022-10-26T13:12:24;6.80;;;2.50;;
4525;SDS011;2275;52.208;8.804;2022-10-26T13:14:55;6.67;;;3.60;;
4525;SDS011;2275;52.208;8.804;2022-10-26T13:17:23;17.50;;;9.10;;
4525;SDS011;2275;52.208;8.804;2022-10-26T13:19:54;13.60;;;4.07;;
4525;SDS011;2275;52.208;8.804;2022-10-26T13:22:22;8.10;;;3.00;;
4525;SDS011;2275;52.208;8.804;2022-10-26T13:24:51;35.63;;;11.00;;
4525;SDS011;2275;52.208;8.804;2022-10-26T13:27:23;32.27;;;17.80;;
4525;SDS011;2275;52.208;8.804;2022-10-26T13:32:39;11.33;;;5.83;;
4525;SDS011;2275;52.208;8.804;2022-10-26T13:35:09;9.32;;;4.12;;
4525;SDS011;2275;52.208;8.804;2022-10-26T13:37:40;9.73;;;3.13;;
4525;SDS011;2275;52.208;8.804;2022-10-26T13:40:09;7.63;;;2.93;;
4525;SDS011;2275;52.208;8.804;2022-10-26T13:42:41;7.03;;;2.73;;
4525;SDS011;2275;52.208;8.804;2022-10-26T13:45:11;13.60;;;3.50;;
4525;SDS011;2275;52.208;8.804;2022-10-26T13:47:43;7.10;;;2.70;;
4525;SDS011;2275;52.208;8.804;2022-10-26T13:50:13;14.83;;;3.03;;
4525;SDS011;2275;52.208;8.804;2022-10-26T13:52:44;6.60;;;2.70;;
4525;SDS011;2275;52.208;8.804;2022-10-26T13:55:15;10.73;;;2.83;;
4525;SDS011;2275;52.208;8.804;2022-10-26T13:57:42;5.90;;;2.78;;
4525;SDS011;2275;52.208;8.804;2022-10-26T14:00:16;11.50;;;2.90;;
4525;SDS011;2275;52.208;8.804;2022-10-26T14:02:45;7.20;;;2.60;;
4525;SDS011;2275;52.208;8.804;2022-10-26T14:05:16;6.60;;;3.30;;
4525;SDS011;2275;52.208;8.804;2022-10-26T14:07:44;8.90;;;2.77;;
4525;SDS011;2275;52.208;8.804;2022-10-26T14:10:21;9.35;;;2.80;;
4525;SDS011;2275;52.208;8.804;2022-10-26T14:12:43;5.40;;;2.30;;
4525;SDS011;2275;52.208;8.804;2022-10-26T14:15:11;9.10;;;2.97;;
4525;SDS011;2275;52.208;8.804;2022-10-26T14:17:37;6.43;;;2.53;;
4525;SDS011;2275;52.208;8.804;2022-10-26T14:20:04;10.40;;;2.80;;
4525;SDS011;2275;52.208;8.804;2022-10-26T14:22:33;9.55;;;2.80;;
4525;SDS011;2275;52.208;8.804;2022-10-26T14:25:00;4.30;;;2.70;;
4525;SDS011;2275;52.208;8.804;2022-10-26T14:27:31;13.50;;;3.73;;
4525;SDS011;2275;52.208;8.804;2022-10-26T14:29:57;9.97;;;2.77;;
4525;SDS011;2275;52.208;8.804;2022-10-26T14:32:27;7.30;;;3.30;;
4525;SDS011;2275;52.208;8.804;2022-10-26T14:34:54;6.45;;;3.15;;
4525;SDS011;2275;52.208;8.804;2022-10-26T14:37:28;4.53;;;2.50;;
4525;SDS011;2275;52.208;8.804;2022-10-26T14:40:05;5.87;;;2.83;;
4525;SDS011;2275;52.208;8.804;2022-10-26T14:42:35;7.70;;;2.30;;
4525;SDS011;2275;52.208;8.804;2022-10-26T14:45:01;6.10;;;2.80;;
4525;SDS011;2275;52.208;8.804;2022-10-26T14:52:50;8.10;;;3.17;;
4525;SDS011;2275;52.208;8.804;2022-10-26T14:55:17;9.33;;;3.00;;
4525;SDS011;2275;52.208;8.804;2022-10-26T14:57:46;7.40;;;3.27;;
4525;SDS011;2275;52.208;8.804;2022-10-26T15:00:14;6.05;;;2.95;;
4525;SDS011;2275;52.208;8.804;2022-10-26T15:02:41;9.40;;;3.40;;
4525;SDS011;2275;52.208;8.804;2022-10-26T15:07:49;20.33;;;5.20;;
4525;SDS011;2275;52.208;8.804;2022-10-26T15:12:56;9.60;;;3.10;;
4525;SDS011;2275;52.208;8.804;2022-10-26T15:15:23;6.35;;;3.00;;
4525;SDS011;2275;52.208;8.804;2022-10-26T15:17:51;6.70;;;3.00;;
4525;SDS011;2275;52.208;8.804;2022-10-26T15:20:18;8.43;;;3.03;;
4525;SDS011;2275;52.208;8.804;2022-10-26T15:22:48;5.73;;;2.90;;
4525;SDS011;2275;52.208;8.804;2022-10-26T15:25:17;8.37;;;3.40;;
4525;SDS011;2275;52.208;8.804;2022-10-26T15:27:44;10.57;;;3.78;;
4525;SDS011;2275;52.208;8.804;2022-10-26T15:32:52;9.67;;;4.30;;
4525;SDS011;2275;52.208;8.804;2022-10-26T15:35:21;13.03;;;4.23;;
4525;SDS011;2275;52.208;8.804;2022-10-26T15:37:47;5.53;;;3.00;;
4525;SDS011;2275;52.208;8.804;2022-10-26T15:40:15;9.40;;;3.67;;
4525;SDS011;2275;52.208;8.804;2022-10-26T15:42:43;11.63;;;3.50;;
4525;SDS011;2275;52.208;8.804;2022-10-26T15:45:14;8.63;;;3.13;;
4525;SDS011;2275;52.208;8.804;2022-10-26T15:47:42;6.60;;;3.23;;
4525;SDS011;2275;52.208;8.804;2022-10-26T15:50:11;9.00;;;3.60;;
4525;SDS011;2275;52.208;8.804;2022-10-26T15:52:38;18.67;;;3.90;;
4525;SDS011;2275;52.208;8.804;2022-10-26T15:55:05;10.23;;;3.40;;
4525;SDS011;2275;52.208;8.804;2022-10-26T15:57:33;13.53;;;3.90;;
4525;SDS011;2275;52.208;8.804;2022-10-26T16:00:02;8.70;;;3.97;;
4525;SDS011;2275;52.208;8.804;2022-10-26T16:02:29;15.63;;;3.60;;
4525;SDS011;2275;52.208;8.804;2022-10-26T16:04:56;16.43;;;8.00;;
4525;SDS011;2275;52.208;8.804;2022-10-26T16:07:23;12.35;;;5.75;;
4525;SDS011;2275;52.208;8.804;2022-10-26T16:09:49;22.20;;;8.00;;
4525;SDS011;2275;52.208;8.804;2022-10-26T16:12:16;15.93;;;6.73;;
4525;SDS011;2275;52.208;8.804;2022-10-26T16:14:43;11.20;;;4.83;;
4525;SDS011;2275;52.208;8.804;2022-10-26T16:17:10;11.27;;;4.80;;
4525;SDS011;2275;52.208;8.804;2022-10-26T16:19:37;9.63;;;4.87;;
4525;SDS011;2275;52.208;8.804;2022-10-26T16:25:12;15.00;;;6.80;;
4525;SDS011;2275;52.208;8.804;2022-10-26T16:27:39;14.40;;;5.50;;
4525;SDS011;2275;52.208;8.804;2022-10-26T16:30:06;16.42;;;7.82;;
4525;SDS011;2275;52.208;8.804;2022-10-26T16:32:33;8.60;;;4.63;;
4525;SDS011;2275;52.208;8.804;2022-10-26T16:35:00;11.00;;;5.67;;
4525;SDS011;2275;52.208;8.804;2022-10-26T16:37:27;10.97;;;4.90;;
4525;SDS011;2275;52.208;8.804;2022-10-26T16:39:55;19.13;;;8.67;;
4525;SDS011;2275;52.208;8.804;2022-10-26T16:42:22;14.35;;;4.80;;